Time;durP1;ratioP1;P1;durP2;ratioP2;P2;SDS_P1;SDS_P2;PMS_P1;PMS_P2;Temp;Humidity;BMP_temperature;BMP_pressure;BME280_temperature;BME280_humidity;BME280_pressure;Samples;Min_cycle;Max_cycle;Signal;HPM_P1;HPM_P2
2023/12/21 00:01:38;;;;;;;4.55;2.88;;;20.80;99.90;;;;;;4991251;28;20097;-52
2023/12/21 00:04:04;;;;;;;4.45;2.90;;;20.80;99.90;;;;;;4992729;28;20113;-52
2023/12/21 00:06:30;;;;;;;4.78;3.42;;;20.70;99.90;;;;;;4992582;28;20046;-53
2023/12/21 00:08:56;;;;;;;5.57;3.50;;;20.70;99.90;;;;;;4992648;28;20050;-52
2023/12/21 00:11:22;;;;;;;4.05;3.00;;;20.70;99.90;;;;;;4992745;28;20057;-52
2023/12/21 00:13:48;;;;;;;4.47;3.13;;;20.70;99.90;;;;;;4992647;28;20041;-53
2023/12/21 00:16:16;;;;;;;5.15;2.95;;;20.70;99.90;;;;;;4992789;28;20035;-52
2023/12/21 00:18:42;;;;;;;4.35;2.85;;;20.70;99.90;;;;;;4992658;28;20031;-53
2023/12/21 00:21:08;;;;;;;3.20;2.80;;;20.70;99.90;;;;;;4992469;28;20083;-53
2023/12/21 00:23:34;;;;;;;4.93;2.60;;;20.60;99.90;;;;;;4992426;28;20036;-53
2023/12/21 00:26:00;;;;;;;4.22;2.80;;;20.60;99.90;;;;;;4992373;28;20088;-52
2023/12/21 00:28:26;;;;;;;4.35;2.70;;;20.60;99.90;;;;;;4992371;28;20022;-53
2023/12/21 00:30:52;;;;;;;4.18;2.90;;;20.60;99.90;;;;;;4992284;28;20031;-53
2023/12/21 00:33:18;;;;;;;4.10;2.70;;;20.60;99.90;;;;;;4992477;28;20035;-53
2023/12/21 00:35:43;;;;;;;3.33;2.58;;;20.60;99.90;;;;;;4993024;28;20030;-52
2023/12/21 00:38:09;;;;;;;5.13;3.53;;;20.60;99.90;;;;;;4996076;28;20382;-53
2023/12/21 00:40:35;;;;;;;3.80;2.72;;;20.60;99.90;;;;;;4995983;28;20034;-52
2023/12/21 00:43:01;;;;;;;5.53;3.30;;;20.60;99.90;;;;;;4996021;28;20386;-53
2023/12/21 00:45:27;;;;;;;4.15;2.70;;;20.60;99.90;;;;;;4995828;28;20038;-53
2023/12/21 00:47:54;;;;;;;3.47;2.38;;;20.60;99.90;;;;;;4995894;28;20157;-53
2023/12/21 00:50:19;;;;;;;3.72;2.58;;;20.50;99.90;;;;;;4995738;28;20027;-53
2023/12/21 00:52:45;;;;;;;3.75;2.47;;;20.50;99.90;;;;;;4995954;28;20026;-53
2023/12/21 00:55:11;;;;;;;4.63;2.45;;;20.50;99.90;;;;;;4995785;28;20380;-53
2023/12/21 00:57:37;;;;;;;4.78;2.33;;;20.50;99.90;;;;;;4995743;28;20022;-53
2023/12/21 01:00:03;;;;;;;3.55;2.50;;;20.50;99.90;;;;;;4996048;28;20382;-54
2023/12/21 01:02:29;;;;;;;2.97;2.10;;;20.50;99.90;;;;;;4995454;28;20594;-53
2023/12/21 01:04:54;;;;;;;3.33;2.42;;;20.50;99.90;;;;;;4995699;28;20054;-53
2023/12/21 01:07:20;;;;;;;3.85;2.55;;;20.40;99.90;;;;;;4995385;28;20486;-53
2023/12/21 01:09:46;;;;;;;3.55;2.25;;;20.50;99.90;;;;;;4995639;28;20034;-53
2023/12/21 01:12:12;;;;;;;5.00;2.67;;;20.50;99.90;;;;;;4995346;28;20073;-53
2023/12/21 01:14:38;;;;;;;3.72;2.47;;;20.40;99.90;;;;;;4995334;28;20030;-53
2023/12/21 01:17:03;;;;;;;3.47;2.60;;;20.40;99.90;;;;;;4995342;28;20057;-53
2023/12/21 01:19:29;;;;;;;3.10;2.08;;;20.40;99.90;;;;;;5010503;28;20041;-53
2023/12/21 01:21:55;;;;;;;3.22;2.13;;;20.40;99.90;;;;;;4995201;28;20598;-52
2023/12/21 01:24:21;;;;;;;3.25;2.08;;;20.40;99.90;;;;;;4995059;28;20364;-53
2023/12/21 01:26:46;;;;;;;2.25;1.85;;;20.40;99.90;;;;;;4995339;28;20034;-53
2023/12/21 01:29:12;;;;;;;3.67;2.25;;;20.40;99.90;;;;;;5010215;28;20108;-54
2023/12/21 01:31:38;;;;;;;2.55;2.05;;;20.40;99.90;;;;;;4995136;28;20027;-54
2023/12/21 01:34:06;;;;;;;2.53;2.03;;;20.40;99.90;;;;;;4994977;28;20490;-54
2023/12/21 01:36:32;;;;;;;2.58;1.95;;;20.30;99.90;;;;;;4994986;28;20031;-52
2023/12/21 01:38:58;;;;;;;2.90;2.10;;;20.30;99.90;;;;;;4995003;28;20029;-52
2023/12/21 01:41:24;;;;;;;3.50;2.00;;;20.30;99.90;;;;;;4994954;28;20478;-52
2023/12/21 01:43:50;;;;;;;2.28;1.90;;;20.40;99.90;;;;;;4995100;28;20023;-53
2023/12/21 01:46:16;;;;;;;4.30;2.15;;;20.30;99.90;;;;;;4994895;28;20089;-52
2023/12/21 01:48:43;;;;;;;2.33;1.95;;;20.30;99.90;;;;;;5008969;28;20534;-52
2023/12/21 01:51:11;;;;;;;2.38;1.83;;;20.30;99.90;;;;;;4994678;28;20030;-52
2023/12/21 01:53:39;;;;;;;2.90;2.05;;;20.30;99.90;;;;;;4994725;28;20026;-52
2023/12/21 01:56:06;;;;;;;2.92;1.77;;;20.30;99.90;;;;;;4994664;28;20022;-53
2023/12/21 01:58:32;;;;;;;2.35;1.67;;;20.30;99.90;;;;;;4994429;28;20113;-53
2023/12/21 02:00:58;;;;;;;2.53;1.83;;;20.30;99.90;;;;;;4995064;28;20034;-52
2023/12/21 02:03:28;;;;;;;2.58;2.03;;;20.30;99.90;;;;;;4994535;28;20122;-52
2023/12/21 02:05:54;;;;;;;2.72;1.70;;;20.30;99.90;;;;;;4994347;28;20483;-51
2023/12/21 02:08:20;;;;;;;2.28;1.67;;;20.30;99.90;;;;;;4994611;28;20027;-53
2023/12/21 02:10:46;;;;;;;3.00;1.83;;;20.30;99.90;;;;;;4994241;28;20049;-52
2023/12/21 02:13:12;;;;;;;2.70;1.67;;;20.20;99.90;;;;;;5009495;28;20018;-53
2023/12/21 02:15:38;;;;;;;2.70;1.70;;;20.20;99.90;;;;;;4994292;28;20027;-53
2023/12/21 02:18:07;;;;;;;3.08;1.90;;;20.20;99.90;;;;;;4994390;28;20033;-53
2023/12/21 02:20:33;;;;;;;2.35;1.90;;;20.20;99.90;;;;;;4994350;28;20466;-53
2023/12/21 02:23:03;;;;;;;2.88;1.67;;;20.20;99.90;;;;;;4994191;28;20371;-53
2023/12/21 02:25:31;;;;;;;2.25;1.85;;;20.20;99.90;;;;;;4993968;28;20068;-53
2023/12/21 02:27:57;;;;;;;2.80;2.00;;;20.20;99.90;;;;;;4993930;28;20065;-52
2023/12/21 02:30:22;;;;;;;3.40;2.17;;;20.20;99.90;;;;;;4994238;28;20035;-53
2023/12/21 02:32:48;;;;;;;2.33;1.80;;;20.20;99.90;;;;;;4994097;28;20031;-52
2023/12/21 02:35:15;;;;;;;2.65;1.60;;;20.20;99.90;;;;;;4993897;28;20475;-53
2023/12/21 02:37:41;;;;;;;3.95;1.50;;;20.20;99.90;;;;;;4993777;28;20023;-53
2023/12/21 02:40:07;;;;;;;4.75;2.60;;;20.20;99.90;;;;;;4993922;28;20069;-53
2023/12/21 02:42:33;;;;;;;1.50;1.40;;;20.20;99.90;;;;;;4993750;28;20037;-53
2023/12/21 02:44:58;;;;;;;2.35;1.65;;;20.10;99.90;;;;;;4993765;28;20038;-52
2023/12/21 02:47:24;;;;;;;2.55;1.50;;;20.20;99.90;;;;;;4993563;28;20061;-52
2023/12/21 02:49:50;;;;;;;3.33;1.80;;;20.10;99.90;;;;;;4993641;28;20049;-53
2023/12/21 02:52:16;;;;;;;2.47;1.70;;;20.10;99.90;;;;;;4993528;28;20077;-54
2023/12/21 02:54:41;;;;;;;2.15;1.50;;;20.10;99.90;;;;;;4993447;28;20045;-53
2023/12/21 02:57:07;;;;;;;2.60;1.75;;;20.10;99.90;;;;;;4993736;28;20114;-52
2023/12/21 02:59:33;;;;;;;2.83;1.58;;;20.10;99.90;;;;;;4993188;28;20094;-53
2023/12/21 03:01:59;;;;;;;2.72;1.85;;;20.20;99.90;;;;;;4993852;28;20514;-53
2023/12/21 03:04:24;;;;;;;2.05;1.52;;;20.10;99.90;;;;;;4993322;28;20026;-53
2023/12/21 03:06:50;;;;;;;2.00;1.50;;;20.10;99.90;;;;;;4993346;28;20038;-52
2023/12/21 03:09:17;;;;;;;2.20;1.70;;;20.10;99.90;;;;;;4992077;28;20034;-53
2023/12/21 03:11:43;;;;;;;2.75;1.63;;;20.10;99.90;;;;;;4991935;28;20096;-53
2023/12/21 03:14:09;;;;;;;3.22;1.75;;;20.10;99.90;;;;;;4993545;28;20073;-54
2023/12/21 03:16:35;;;;;;;4.22;1.40;;;20.10;99.90;;;;;;4993448;28;20026;-52
2023/12/21 03:19:00;;;;;;;1.50;1.40;;;20.10;99.90;;;;;;4993471;28;20022;-52
2023/12/21 03:21:26;;;;;;;2.28;1.50;;;20.10;99.90;;;;;;4991886;28;20030;-52
2023/12/21 03:23:52;;;;;;;1.65;1.52;;;20.10;99.90;;;;;;4993059;28;20097;-52
2023/12/21 03:26:18;;;;;;;2.15;1.67;;;20.10;99.90;;;;;;4993022;28;20034;-52
2023/12/21 03:28:45;;;;;;;2.28;1.63;;;20.00;99.90;;;;;;4993071;28;20054;-53
2023/12/21 03:31:11;;;;;;;1.60;1.48;;;20.10;99.90;;;;;;4992013;28;20471;-53
2023/12/21 03:33:37;;;;;;;2.50;1.52;;;20.10;99.90;;;;;;4993196;28;20054;-53
2023/12/21 03:36:03;;;;;;;2.15;1.27;;;20.10;99.90;;;;;;4992908;28;20156;-53
2023/12/21 03:38:29;;;;;;;1.95;1.50;;;20.00;99.90;;;;;;4992878;28;20068;-52
2023/12/21 03:40:55;;;;;;;2.40;1.50;;;20.00;99.90;;;;;;4993026;28;20062;-53
2023/12/21 03:43:21;;;;;;;2.13;1.50;;;20.00;99.90;;;;;;4992938;28;20360;-53
2023/12/21 03:45:47;;;;;;;2.65;1.73;;;20.00;99.90;;;;;;4992753;28;20123;-53
2023/12/21 03:48:13;;;;;;;1.55;1.25;;;20.00;99.90;;;;;;4993086;28;20054;-53
2023/12/21 03:50:39;;;;;;;1.77;1.35;;;20.00;99.90;;;;;;4993010;28;20530;-54
2023/12/21 03:53:07;;;;;;;1.40;1.02;;;20.00;99.90;;;;;;4992688;28;20030;-53
2023/12/21 03:55:33;;;;;;;1.48;1.20;;;20.00;99.90;;;;;;4992961;28;20798;-53
2023/12/21 03:57:59;;;;;;;1.95;1.40;;;20.00;99.90;;;;;;4992794;28;20026;-52
2023/12/21 04:00:25;;;;;;;3.60;1.40;;;20.00;99.90;;;;;;4993214;28;20076;-52
2023/12/21 04:02:51;;;;;;;1.92;1.70;;;20.00;99.90;;;;;;4992661;28;20125;-52
2023/12/21 04:05:17;;;;;;;2.78;1.25;;;20.00;99.90;;;;;;4992437;28;20101;-51
2023/12/21 04:07:42;;;;;;;1.83;1.30;;;20.00;99.90;;;;;;4992897;28;20026;-53
2023/12/21 04:10:08;;;;;;;1.00;0.90;;;20.00;99.90;;;;;;4992623;28;20061;-52
2023/12/21 04:12:34;;;;;;;1.45;1.30;;;19.90;99.90;;;;;;4996246;28;20153;-52
2023/12/21 04:15:00;;;;;;;2.13;1.50;;;20.00;99.90;;;;;;4996527;28;20133;-52
2023/12/21 04:17:26;;;;;;;1.17;1.08;;;19.90;99.90;;;;;;4996388;28;20027;-52
2023/12/21 04:19:52;;;;;;;1.35;1.10;;;19.90;99.90;;;;;;4996515;28;20125;-52
2023/12/21 04:22:18;;;;;;;1.83;1.42;;;19.90;99.90;;;;;;4996541;28;20022;-53
2023/12/21 04:24:44;;;;;;;1.38;1.20;;;19.90;99.90;;;;;;4995285;28;20030;-54
2023/12/21 04:27:10;;;;;;;1.90;1.33;;;19.90;99.90;;;;;;4996298;28;20038;-52
2023/12/21 04:29:39;;;;;;;1.70;1.45;;;19.90;99.90;;;;;;4996287;28;20109;-52
2023/12/21 04:32:06;;;;;;;1.55;1.08;;;19.90;99.90;;;;;;4996246;28;20411;-52
2023/12/21 04:34:32;;;;;;;2.05;1.27;;;19.90;99.90;;;;;;4995978;28;20029;-52
2023/12/21 04:36:58;;;;;;;1.92;1.20;;;19.90;99.90;;;;;;4996125;28;20026;-53
2023/12/21 04:39:23;;;;;;;1.63;1.10;;;19.90;99.90;;;;;;4996071;28;20479;-52
2023/12/21 04:41:50;;;;;;;1.38;1.20;;;19.90;99.90;;;;;;4996003;28;20100;-53
2023/12/21 04:44:16;;;;;;;1.27;1.10;;;19.90;99.90;;;;;;5011323;28;20037;-53
2023/12/21 04:46:42;;;;;;;1.67;1.35;;;19.90;99.90;;;;;;4995919;28;20035;-52
2023/12/21 04:49:08;;;;;;;1.67;1.30;;;19.90;99.90;;;;;;4995855;28;20021;-51
2023/12/21 04:51:34;;;;;;;2.63;1.48;;;19.80;99.90;;;;;;4995864;28;20029;-53
2023/12/21 04:54:00;;;;;;;2.00;1.27;;;19.90;99.90;;;;;;4996019;28;20367;-52
2023/12/21 04:56:25;;;;;;;1.63;1.15;;;19.80;99.90;;;;;;4995731;28;20031;-52
2023/12/21 04:58:51;;;;;;;1.45;1.35;;;19.80;99.90;;;;;;4995544;28;20026;-52
2023/12/21 05:01:18;;;;;;;1.50;1.05;;;19.80;99.90;;;;;;4996032;28;20057;-52
2023/12/21 05:03:44;;;;;;;1.48;1.10;;;19.80;99.90;;;;;;4995686;28;20038;-52
2023/12/21 05:06:09;;;;;;;1.27;1.00;;;19.80;99.90;;;;;;4995417;28;20479;-50
2023/12/21 05:08:35;;;;;;;1.35;1.20;;;19.80;99.90;;;;;;4994317;28;20033;-53
2023/12/21 05:11:02;;;;;;;1.30;1.10;;;19.80;99.90;;;;;;4995424;28;20478;-53
2023/12/21 05:13:28;;;;;;;1.98;1.30;;;19.80;99.90;;;;;;4995396;28;20018;-53
2023/12/21 05:15:53;;;;;;;1.45;1.10;;;19.80;99.90;;;;;;4995395;28;20497;-53
2023/12/21 05:18:19;;;;;;;1.80;1.00;;;19.80;99.90;;;;;;4995348;28;20367;-53
2023/12/21 05:20:45;;;;;;;1.83;1.40;;;19.70;99.90;;;;;;4995549;28;20438;-52
2023/12/21 05:23:11;;;;;;;1.65;1.15;;;19.70;99.90;;;;;;4995149;28;20022;-53
2023/12/21 05:25:37;;;;;;;1.40;1.27;;;19.70;99.90;;;;;;4995135;28;20030;-53
2023/12/21 05:28:02;;;;;;;1.83;1.00;;;19.70;99.90;;;;;;4995264;28;20042;-52
2023/12/21 05:30:28;;;;;;;1.38;1.10;;;19.70;99.90;;;;;;4993871;28;20034;-52
2023/12/21 05:32:55;;;;;;;1.77;1.48;;;19.70;99.90;;;;;;4995016;28;20372;-52
2023/12/21 05:35:21;;;;;;;2.67;1.67;;;19.70;99.90;;;;;;4994892;28;20027;-52
2023/12/21 05:37:46;;;;;;;1.77;1.27;;;19.70;99.90;;;;;;4995040;28;20053;-52
2023/12/21 05:40:14;;;;;;;1.38;0.73;;;19.70;99.90;;;;;;4995000;28;20081;-53
2023/12/21 05:42:40;;;;;;;1.67;1.15;;;19.70;99.90;;;;;;4994904;28;20034;-52
2023/12/21 05:45:07;;;;;;;1.30;0.90;;;19.60;99.90;;;;;;4994856;28;20058;-53
2023/12/21 05:47:32;;;;;;;1.38;1.23;;;19.70;99.90;;;;;;4994642;28;20034;-53
2023/12/21 05:49:58;;;;;;;1.60;1.27;;;19.70;99.90;;;;;;4994897;28;20101;-54
2023/12/21 05:52:24;;;;;;;1.70;1.00;;;19.60;99.90;;;;;;4993550;28;20109;-53
2023/12/21 05:54:50;;;;;;;1.30;1.20;;;19.60;99.90;;;;;;4994741;28;20497;-53
2023/12/21 05:57:16;;;;;;;2.13;1.38;;;19.60;99.90;;;;;;4994900;28;20027;-54
2023/12/21 05:59:43;;;;;;;1.58;1.38;;;19.60;99.90;;;;;;4994611;28;20030;-53
2023/12/21 06:02:09;;;;;;;1.92;1.02;;;19.60;99.90;;;;;;4994349;28;20074;-53
2023/12/21 06:04:35;;;;;;;2.40;1.40;;;19.60;99.90;;;;;;4994585;28;20113;-53
2023/12/21 06:07:01;;;;;;;3.53;1.35;;;19.60;99.90;;;;;;4994407;28;20367;-54
2023/12/21 06:09:27;;;;;;;1.70;1.48;;;19.60;99.90;;;;;;4994384;28;20105;-54
2023/12/21 06:11:53;;;;;;;1.75;1.45;;;19.60;99.90;;;;;;4994232;28;20081;-53
2023/12/21 06:14:18;;;;;;;1.38;1.05;;;19.60;99.90;;;;;;4994462;28;20026;-54
2023/12/21 06:16:44;;;;;;;1.73;1.20;;;19.60;99.90;;;;;;4994235;28;20513;-53
2023/12/21 06:19:10;;;;;;;1.30;1.20;;;19.60;99.90;;;;;;4994177;28;20364;-53
2023/12/21 06:21:39;;;;;;;1.63;1.38;;;19.60;99.90;;;;;;4994278;28;20498;-53
2023/12/21 06:24:06;;;;;;;1.40;1.13;;;19.60;99.90;;;;;;4992777;28;20586;-53
2023/12/21 06:26:38;;;;;;;1.92;1.08;;;19.60;99.90;;;;;;4992792;28;20062;-53
2023/12/21 06:29:03;;;;;;;1.60;1.30;;;19.60;99.90;;;;;;4994243;28;20018;-54
2023/12/21 06:31:29;;;;;;;3.22;1.27;;;19.50;99.90;;;;;;4993992;28;20037;-53
2023/12/21 06:33:55;;;;;;;2.22;1.30;;;19.50;99.90;;;;;;4993510;28;20026;-53
2023/12/21 06:36:20;;;;;;;2.47;1.58;;;19.50;99.90;;;;;;4994212;28;20030;-53
2023/12/21 06:38:46;;;;;;;1.35;1.10;;;19.50;99.90;;;;;;4993744;28;20026;-54
2023/12/21 06:41:15;;;;;;;1.70;1.10;;;19.50;99.90;;;;;;4993790;28;20383;-53
2023/12/21 06:43:41;;;;;;;1.80;1.13;;;19.50;99.90;;;;;;4993700;28;20027;-53
2023/12/21 06:46:13;;;;;;;2.70;1.08;;;19.50;99.90;;;;;;4993406;28;20399;-53
2023/12/21 06:48:40;;;;;;;2.35;1.50;;;19.50;99.90;;;;;;4993578;28;20034;-54
2023/12/21 06:51:05;;;;;;;1.67;1.10;;;19.50;99.90;;;;;;4993559;28;20022;-53
2023/12/21 06:53:31;;;;;;;3.25;1.50;;;19.50;99.90;;;;;;4993462;28;20033;-52
2023/12/21 06:55:57;;;;;;;1.33;1.00;;;19.50;99.90;;;;;;4993588;28;20030;-53
2023/12/21 06:58:24;;;;;;;3.67;1.30;;;19.50;99.90;;;;;;4994110;28;20375;-53
2023/12/21 07:00:50;;;;;;;1.58;1.10;;;19.40;99.90;;;;;;4993308;28;20026;-53
2023/12/21 07:03:16;;;;;;;3.78;1.20;;;19.40;99.90;;;;;;4993369;28;20026;-53
2023/12/21 07:05:41;;;;;;;1.58;1.13;;;19.40;99.90;;;;;;4993297;28;20030;-53
2023/12/21 07:08:08;;;;;;;3.13;1.27;;;19.40;99.90;;;;;;4993367;28;20034;-53
2023/12/21 07:10:34;;;;;;;2.05;1.33;;;19.40;99.90;;;;;;5008340;28;20033;-52
2023/12/21 07:13:00;;;;;;;1.63;1.25;;;19.40;99.90;;;;;;4993242;28;20038;-52
2023/12/21 07:15:26;;;;;;;1.63;1.20;;;19.40;99.90;;;;;;4993191;28;20049;-52
2023/12/21 07:17:51;;;;;;;1.20;1.02;;;19.40;99.90;;;;;;4993588;28;20115;-52
2023/12/21 07:20:21;;;;;;;2.30;1.92;;;19.40;99.90;;;;;;4993081;28;20077;-53
2023/12/21 07:22:47;;;;;;;4.35;1.55;;;19.40;99.90;;;;;;4993028;28;20558;-53
2023/12/21 07:25:12;;;;;;;1.52;1.02;;;19.40;99.90;;;;;;4993013;28;20117;-54
2023/12/21 07:27:38;;;;;;;2.70;1.40;;;19.40;99.90;;;;;;4992848;28;20085;-54
2023/12/21 07:30:05;;;;;;;2.53;1.58;;;19.40;99.90;;;;;;4993039;28;20045;-53
2023/12/21 07:32:30;;;;;;;2.40;1.20;;;19.40;99.90;;;;;;4993230;28;20119;-53
2023/12/21 07:34:56;;;;;;;1.95;0.95;;;19.40;99.90;;;;;;4992974;28;20107;-53
2023/12/21 07:37:22;;;;;;;4.40;1.30;;;19.40;99.90;;;;;;4993090;28;20055;-53
2023/12/21 07:39:48;;;;;;;2.53;1.70;;;19.40;99.90;;;;;;4992825;28;20061;-54
2023/12/21 07:42:14;;;;;;;1.90;1.20;;;19.40;99.90;;;;;;5008138;28;20035;-53
2023/12/21 07:44:39;;;;;;;2.88;1.38;;;19.40;99.90;;;;;;4992795;28;20026;-53
2023/12/21 07:47:05;;;;;;;2.95;1.20;;;19.40;99.90;;;;;;4990739;28;20046;-53
2023/12/21 07:49:32;;;;;;;3.35;1.77;;;19.40;99.90;;;;;;4992807;28;20105;-53
2023/12/21 07:51:57;;;;;;;3.45;1.60;;;19.40;99.90;;;;;;5007900;28;20080;-53
2023/12/21 07:54:23;;;;;;;2.15;1.55;;;19.50;99.90;;;;;;5007972;28;20026;-53
2023/12/21 07:56:49;;;;;;;3.05;1.80;;;19.40;99.90;;;;;;4992771;28;20113;-54
2023/12/21 07:59:15;;;;;;;11.18;1.95;;;19.40;99.90;;;;;;4991485;28;20030;-53
2023/12/21 08:01:41;;;;;;;2.92;2.03;;;19.50;99.90;;;;;;4992507;28;20046;-53
2023/12/21 08:04:09;;;;;;;2.67;1.60;;;19.50;99.90;;;;;;4992716;28;20065;-53
2023/12/21 08:06:35;;;;;;;3.65;2.15;;;19.50;99.90;;;;;;4992662;28;20042;-53
2023/12/21 08:09:01;;;;;;;2.33;1.50;;;19.50;99.90;;;;;;4992729;28;20023;-53
2023/12/21 08:11:27;;;;;;;2.72;1.70;;;19.60;99.90;;;;;;4992733;28;20090;-54
2023/12/21 08:13:52;;;;;;;3.42;2.17;;;19.60;99.90;;;;;;4992818;28;20019;-54
2023/12/21 08:16:18;;;;;;;3.45;2.15;;;19.60;99.90;;;;;;4992572;28;20031;-53
2023/12/21 08:18:44;;;;;;;3.10;1.92;;;19.70;99.90;;;;;;4992456;28;20049;-54
2023/12/21 08:21:11;;;;;;;2.97;1.83;;;19.70;99.90;;;;;;4992388;28;20105;-54
2023/12/21 08:23:37;;;;;;;2.95;1.75;;;19.70;99.90;;;;;;4992347;28;20022;-53
2023/12/21 08:26:03;;;;;;;5.03;1.90;;;19.70;99.90;;;;;;4992307;28;20438;-53
2023/12/21 08:28:30;;;;;;;2.70;2.00;;;19.80;99.90;;;;;;4992478;28;20035;-53
2023/12/21 08:30:57;;;;;;;3.50;1.97;;;19.80;99.90;;;;;;4992720;28;20018;-53
2023/12/21 08:33:22;;;;;;;3.13;2.25;;;19.80;99.90;;;;;;4992387;28;20033;-54
2023/12/21 08:35:48;;;;;;;2.72;1.90;;;19.90;99.90;;;;;;4991084;28;20026;-54
2023/12/21 08:38:14;;;;;;;3.50;1.92;;;19.90;99.90;;;;;;4992216;28;20030;-54
2023/12/21 08:40:40;;;;;;;2.72;1.88;;;19.90;99.90;;;;;;4992326;28;20022;-54
2023/12/21 08:43:05;;;;;;;3.33;1.90;;;19.90;99.90;;;;;;4992379;28;20419;-54
2023/12/21 08:45:32;;;;;;;3.03;1.90;;;20.00;99.90;;;;;;4992094;28;20034;-54
2023/12/21 08:47:58;;;;;;;3.67;2.15;;;20.00;99.90;;;;;;4991296;28;20030;-54
2023/12/21 08:50:24;;;;;;;4.18;2.42;;;20.00;99.90;;;;;;5007444;28;20027;-54
2023/12/21 08:52:50;;;;;;;6.75;2.15;;;20.10;99.90;;;;;;4992208;28;20498;-54
2023/12/21 08:55:16;;;;;;;3.38;2.00;;;20.10;99.90;;;;;;4992375;28;20050;-54
2023/12/21 08:57:42;;;;;;;4.72;2.42;;;20.10;99.90;;;;;;4994039;28;20022;-53
2023/12/21 09:00:12;;;;;;;3.90;2.47;;;20.20;99.90;;;;;;4995690;28;20026;-54
2023/12/21 09:02:39;;;;;;;3.25;2.13;;;20.20;99.90;;;;;;4995588;28;20080;-54
2023/12/21 09:05:06;;;;;;;3.20;1.83;;;20.20;99.90;;;;;;4995655;28;20061;-54
2023/12/21 09:07:32;;;;;;;2.33;1.63;;;20.30;99.90;;;;;;4994077;28;20295;-54
2023/12/21 09:09:59;;;;;;;3.33;2.00;;;20.30;99.90;;;;;;4995837;28;20434;-54
2023/12/21 09:12:25;;;;;;;3.38;1.90;;;20.30;99.90;;;;;;4995711;28;20080;-54
2023/12/21 09:14:52;;;;;;;4.30;2.20;;;20.40;99.90;;;;;;4995257;28;20049;-54
2023/12/21 09:17:19;;;;;;;3.40;2.40;;;20.40;99.90;;;;;;4995270;28;20033;-54
2023/12/21 09:19:45;;;;;;;4.13;1.85;;;20.40;99.90;;;;;;4995322;28;20018;-54
2023/12/21 09:22:11;;;;;;;3.10;2.25;;;20.50;99.90;;;;;;4995166;28;20026;-54
2023/12/21 09:24:40;;;;;;;3.55;1.98;;;20.50;99.90;;;;;;5010204;28;20549;-54
2023/12/21 09:27:06;;;;;;;3.28;2.05;;;20.50;99.90;;;;;;4994954;28;20129;-55
2023/12/21 09:29:32;;;;;;;4.55;1.80;;;20.60;99.90;;;;;;4995274;28;20050;-54
2023/12/21 09:31:59;;;;;;;3.65;2.33;;;20.60;99.90;;;;;;4995312;28;20022;-54
2023/12/21 09:34:24;;;;;;;5.70;2.83;;;20.60;99.90;;;;;;4995056;28;20027;-54
2023/12/21 09:36:53;;;;;;;3.15;2.10;;;20.70;99.90;;;;;;4993674;28;20038;-53
2023/12/21 09:39:19;;;;;;;3.13;2.08;;;20.70;99.90;;;;;;4994996;28;20114;-54
2023/12/21 09:41:45;;;;;;;1.90;1.70;;;20.70;99.90;;;;;;4994955;28;20485;-54
2023/12/21 09:44:16;;;;;;;3.75;1.80;;;20.80;99.90;;;;;;4994907;28;20117;-53
2023/12/21 09:46:44;;;;;;;2.55;1.75;;;20.80;99.90;;;;;;4994696;28;20042;-53
2023/12/21 09:49:12;;;;;;;2.97;1.98;;;20.80;99.90;;;;;;4994794;28;20061;-53
2023/12/21 09:51:39;;;;;;;3.13;1.90;;;20.90;99.90;;;;;;4994680;28;20535;-54
2023/12/21 09:54:07;;;;;;;2.83;1.92;;;20.90;99.90;;;;;;4994663;28;20157;-53
2023/12/21 09:56:33;;;;;;;3.15;2.08;;;21.00;99.90;;;;;;4994673;28;20026;-54
2023/12/21 09:59:01;;;;;;;3.47;1.70;;;21.00;99.90;;;;;;4994788;28;20376;-53
2023/12/21 10:01:27;;;;;;;3.08;2.05;;;21.00;99.90;;;;;;4994402;28;20053;-55
2023/12/21 10:03:53;;;;;;;2.75;1.70;;;21.10;99.90;;;;;;4994418;28;20417;-53
2023/12/21 10:06:19;;;;;;;2.55;1.75;;;21.10;99.90;;;;;;4994403;28;20475;-53
2023/12/21 10:08:45;;;;;;;2.83;2.13;;;21.10;99.90;;;;;;4993587;28;20113;-54
2023/12/21 10:11:11;;;;;;;4.43;2.05;;;21.20;99.90;;;;;;4994265;28;20379;-55
2023/12/21 10:13:37;;;;;;;6.95;2.70;;;21.20;99.90;;;;;;4994471;28;20026;-53
2023/12/21 10:16:03;;;;;;;2.67;1.80;;;21.30;99.90;;;;;;4994376;28;20026;-53
2023/12/21 10:18:30;;;;;;;3.58;1.90;;;21.40;99.90;;;;;;4994428;28;20057;-53
2023/12/21 10:20:57;;;;;;;3.63;1.85;;;21.40;99.90;;;;;;4992853;28;20077;-53
2023/12/21 10:23:25;;;;;;;3.42;1.90;;;21.50;99.90;;;;;;4994169;28;20110;-53
2023/12/21 10:25:52;;;;;;;2.45;1.67;;;21.50;99.90;;;;;;4994050;28;20502;-53
2023/12/21 10:28:24;;;;;;;5.03;1.85;;;21.60;99.90;;;;;;4994040;28;20034;-53
2023/12/21 10:30:55;;;;;;;3.30;2.22;;;21.60;99.90;;;;;;4993929;28;20029;-53
2023/12/21 10:33:20;;;;;;;2.13;1.52;;;21.70;99.90;;;;;;4993939;28;20018;-53
2023/12/21 10:35:46;;;;;;;3.75;2.35;;;21.70;99.90;;;;;;4993596;28;20030;-52
2023/12/21 10:38:14;;;;;;;2.72;1.70;;;21.80;99.90;;;;;;4993810;28;20026;-53
2023/12/21 10:40:40;;;;;;;;;;;21.80;99.90;;;;;;4994185;28;20030;-54
2023/12/21 10:43:07;;;;;;;2.50;1.73;;;21.80;99.90;;;;;;4993723;28;19906;-54
2023/12/21 10:45:33;;;;;;;2.90;2.07;;;21.90;99.90;;;;;;4993814;28;20026;-53
2023/12/21 10:48:12;;;;;;;2.60;1.95;;;22.00;99.90;;;;;;4993651;28;20026;-54
2023/12/21 10:50:38;;;;;;;3.25;2.10;;;22.00;99.90;;;;;;5008639;28;20026;-53
2023/12/21 10:53:05;;;;;;;2.92;1.98;;;22.10;99.90;;;;;;4993574;28;20022;-53
2023/12/21 10:55:31;;;;;;;3.72;2.15;;;22.00;99.90;;;;;;4993714;28;20029;-53
2023/12/21 10:58:00;;;;;;;3.33;2.22;;;22.10;99.90;;;;;;4993437;28;20026;-52
2023/12/21 11:00:26;;;;;;;3.70;2.17;;;22.20;99.90;;;;;;4992124;28;20121;-53
2023/12/21 11:02:53;;;;;;;4.07;2.35;;;22.20;99.90;;;;;;4993217;28;20053;-53
2023/12/21 11:05:22;;;;;;;3.20;2.00;;;22.20;99.90;;;;;;4993325;28;20437;-53
2023/12/21 11:07:53;;;;;;;3.78;2.05;;;22.30;99.90;;;;;;4993641;28;20030;-55
2023/12/21 11:10:21;;;;;;;2.60;1.83;;;22.30;99.90;;;;;;5008146;28;20026;-53
2023/12/21 11:12:47;;;;;;;2.33;1.85;;;22.40;99.90;;;;;;4993038;28;20032;-53
2023/12/21 11:15:21;;;;;;;4.20;2.10;;;22.40;99.90;;;;;;4991738;28;20049;-53
2023/12/21 11:17:59;;;;;;;3.88;2.38;;;22.40;99.90;;;;;;4993041;28;20415;-53
2023/12/21 11:20:31;;;;;;;3.97;1.95;;;22.50;99.90;;;;;;4992959;28;20030;-55
2023/12/21 11:22:57;;;;;;;3.30;2.00;;;22.50;99.90;;;;;;4992884;28;20435;-54
2023/12/21 11:25:23;;;;;;;2.58;2.03;;;22.50;99.90;;;;;;4992994;28;20061;-54
2023/12/21 11:27:51;;;;;;;4.55;2.75;;;22.60;99.90;;;;;;5007934;28;20583;-53
2023/12/21 11:30:18;;;;;;;3.47;1.92;;;22.60;99.90;;;;;;4993129;28;20125;-54
2023/12/21 11:32:48;;;;;;;3.42;2.10;;;22.60;99.90;;;;;;4991674;28;20450;-54
2023/12/21 11:35:22;;;;;;;3.42;2.13;;;22.70;99.90;;;;;;4992605;28;20031;-53
2023/12/21 11:37:55;;;;;;;3.17;2.25;;;22.70;99.90;;;;;;4993002;28;20026;-54
2023/12/21 11:40:22;;;;;;;3.70;2.17;;;22.70;99.90;;;;;;4992783;28;20041;-54
2023/12/21 11:42:49;;;;;;;3.78;1.85;;;22.80;99.90;;;;;;4992767;28;20054;-54
2023/12/21 11:45:24;;;;;;;4.57;2.35;;;22.80;99.90;;;;;;4992833;28;20034;-54
2023/12/21 11:47:52;;;;;;;3.60;2.42;;;22.80;99.90;;;;;;4992581;28;20034;-54
2023/12/21 11:50:23;;;;;;;2.45;2.05;;;22.90;99.90;;;;;;4992738;28;20030;-54
2023/12/21 11:52:49;;;;;;;3.45;2.40;;;22.90;99.90;;;;;;4992940;28;20042;-54
2023/12/21 11:55:25;;;;;;;4.03;2.35;;;22.90;99.90;;;;;;4992699;28;20023;-54
2023/12/21 11:58:13;;;;;;;2.83;1.80;;;22.90;99.90;;;;;;4992658;28;20397;-54
2023/12/21 12:01:05;;;;;;;;;;;23.00;99.90;;;;;;4992948;28;20080;-54
2023/12/21 12:03:31;;;;;;;3.78;2.00;;;23.00;99.90;;;;;;4992293;28;19949;-54
2023/12/21 12:06:01;;;;;;;6.10;2.75;;;23.10;99.90;;;;;;5007777;28;20088;-54
2023/12/21 12:08:26;;;;;;;3.38;2.15;;;23.10;99.90;;;;;;4992503;28;20022;-53
2023/12/21 12:10:53;;;;;;;3.85;2.10;;;23.10;99.90;;;;;;4992295;28;20026;-53
2023/12/21 12:13:21;;;;;;;2.83;1.90;;;23.10;99.90;;;;;;5007588;28;20109;-54
2023/12/21 12:15:48;;;;;;;4.72;2.33;;;23.10;99.90;;;;;;5007080;28;20106;-53
2023/12/21 12:18:17;;;;;;;2.85;2.10;;;23.20;99.90;;;;;;4992311;28;20382;-53
2023/12/21 12:20:43;;;;;;;9.32;2.60;;;23.20;99.90;;;;;;4992472;28;20034;-53
2023/12/21 12:23:10;;;;;;;4.40;2.40;;;23.20;99.90;;;;;;4992766;28;20038;-53
2023/12/21 12:25:36;;;;;;;3.60;2.22;;;23.20;99.90;;;;;;4991071;28;20037;-53
2023/12/21 12:28:04;;;;;;;4.00;2.45;;;23.30;99.90;;;;;;4992274;28;20038;-53
2023/12/21 12:30:33;;;;;;;3.50;2.00;;;23.30;99.90;;;;;;4992296;28;20092;-54
2023/12/21 12:33:05;;;;;;;2.58;1.90;;;23.30;99.90;;;;;;4994667;28;20560;-53
2023/12/21 12:35:32;;;;;;;3.25;2.13;;;23.40;99.90;;;;;;4995917;28;20081;-54
2023/12/21 12:37:58;;;;;;;3.08;2.20;;;23.40;99.90;;;;;;5011135;28;20554;-53
2023/12/21 12:40:24;;;;;;;2.85;2.00;;;23.40;99.90;;;;;;4996002;28;20114;-53
2023/12/21 12:42:53;;;;;;;4.35;2.42;;;23.40;99.90;;;;;;4994522;28;20057;-52
2023/12/21 12:45:19;;;;;;;2.67;1.85;;;23.50;99.90;;;;;;4995811;28;20027;-52